Time;durP1;ratioP1;P1;durP2;ratioP2;P2;SDS_P1;SDS_P2;PMS_P1;PMS_P2;Temp;Humidity;BMP_temperature;BMP_pressure;BME280_temperature;BME280_humidity;BME280_pressure;Samples;Min_cycle;Max_cycle;Signal;HPM_P1;HPM_P2
2023/04/06 00:01:07;;;;;;;22.10;14.63;;;;;;;3.81;66.29;101681.81;5037522;28;20044;-62
2023/04/06 00:03:32;;;;;;;25.92;15.38;;;;;;;3.83;66.72;101677.31;5033881;28;20648;-63
2023/04/06 00:05:57;;;;;;;23.70;15.27;;;;;;;3.76;66.56;101673.38;5034368;28;20028;-62
2023/04/06 00:08:23;;;;;;;23.65;14.43;;;;;;;3.81;66.20;101676.56;5035197;28;20025;-63
2023/04/06 00:10:48;;;;;;;23.38;15.23;;;;;;;3.75;66.73;101676.97;5037217;28;20021;-62
2023/04/06 00:13:14;;;;;;;23.60;15.50;;;;;;;3.74;66.84;101662.13;5035393;28;20495;-62
2023/04/06 00:15:40;;;;;;;27.80;14.80;;;;;;;3.68;66.49;101665.13;5034097;28;20048;-62
2023/04/06 00:18:05;;;;;;;23.77;14.75;;;;;;;3.72;67.19;101664.00;5032191;28;20047;-62
2023/04/06 00:20:31;;;;;;;22.77;14.70;;;;;;;3.71;66.24;101664.97;5035334;28;20055;-63
2023/04/06 00:22:56;;;;;;;23.02;14.80;;;;;;;3.70;66.84;101663.28;5039436;28;20021;-62
2023/04/06 00:25:22;;;;;;;22.83;14.10;;;;;;;3.69;66.43;101661.59;5035311;28;20029;-61
2023/04/06 00:27:47;;;;;;;22.95;14.82;;;;;;;3.67;66.33;101660.84;5035076;28;20060;-62
2023/04/06 00:30:12;;;;;;;23.17;13.82;;;;;;;3.69;66.01;101662.41;5035824;28;20054;-63
2023/04/06 00:32:38;;;;;;;23.23;13.80;;;;;;;3.69;66.09;101651.09;5036531;28;20511;-63
2023/04/06 00:35:04;;;;;;;20.73;13.55;;;;;;;3.62;66.33;101656.72;5039488;28;20033;-62
2023/04/06 00:37:30;;;;;;;21.08;13.77;;;;;;;3.63;66.31;101650.53;5040373;28;20048;-62
2023/04/06 00:39:55;;;;;;;24.02;13.98;;;;;;;3.65;65.79;101649.59;5038005;28;20437;-62
2023/04/06 00:42:25;;;;;;;21.73;13.88;;;;;;;3.62;65.64;101645.38;5040447;28;20028;-63
2023/04/06 00:44:59;;;;;;;23.15;13.48;;;;;;;3.61;66.00;101644.53;5039175;28;20045;-61
2023/04/06 00:47:25;;;;;;;21.13;13.60;;;;;;;3.60;65.41;101632.38;5037573;28;20555;-63
2023/04/06 00:49:51;;;;;;;22.90;14.30;;;;;;;3.58;65.79;101639.50;5036748;28;20040;-62
2023/04/06 00:52:17;;;;;;;24.35;13.55;;;;;;;3.60;65.53;101632.38;5038078;28;20021;-62
2023/04/06 00:54:42;;;;;;;22.70;14.00;;;;;;;3.53;65.00;101631.06;5038081;28;20029;-63
2023/04/06 00:57:08;;;;;;;22.83;13.48;;;;;;;3.58;65.40;101629.00;5037896;28;20064;-62
2023/04/06 00:59:33;;;;;;;19.85;12.93;;;;;;;3.56;65.61;101625.63;5038712;28;20037;-62
2023/04/06 01:01:59;;;;;;;22.65;13.85;;;;;;;3.53;65.85;101625.81;5037494;28;20025;-62
2023/04/06 01:04:24;;;;;;;22.10;13.85;;;;;;;3.53;65.42;101624.97;5037583;28;20029;-63
2023/04/06 01:06:50;;;;;;;20.50;13.40;;;;;;;3.51;65.79;101617.22;5034451;28;20052;-62
2023/04/06 01:09:18;;;;;;;23.40;13.70;;;;;;;3.51;66.04;101622.47;5032958;28;20054;-62
2023/04/06 01:11:44;;;;;;;21.73;13.80;;;;;;;3.52;66.05;101616.28;5033099;28;20103;-63
2023/04/06 01:14:09;;;;;;;21.88;13.40;;;;;;;3.49;65.88;101619.06;5037105;28;20482;-62
2023/04/06 01:16:36;;;;;;;24.87;14.47;;;;;;;3.49;65.42;101611.22;5041041;28;20094;-62
2023/04/06 01:19:06;;;;;;;22.37;13.87;;;;;;;3.48;66.10;101606.91;5041906;28;20485;-63
2023/04/06 01:21:31;;;;;;;23.97;14.10;;;;;;;3.44;65.94;101605.41;5042182;28;20033;-63
2023/04/06 01:23:57;;;;;;;23.17;14.97;;;;;;;3.40;65.41;101609.19;5040648;28;20462;-63
2023/04/06 01:26:22;;;;;;;21.90;14.40;;;;;;;3.43;65.79;101601.97;5034085;28;20033;-62
2023/04/06 01:28:47;;;;;;;22.17;14.30;;;;;;;3.46;65.64;101608.78;5040358;28;20029;-63
2023/04/06 01:31:13;;;;;;;24.13;14.63;;;;;;;3.44;65.70;101605.41;5042701;28;20488;-62
2023/04/06 01:33:38;;;;;;;25.85;15.25;;;;;;;3.42;66.60;101604.66;5040569;28;20033;-63
2023/04/06 01:36:04;;;;;;;22.35;14.23;;;;;;;3.40;66.65;101602.13;5045543;28;20025;-62
2023/04/06 01:38:29;;;;;;;23.37;14.00;;;;;;;3.43;66.19;101598.47;5041385;28;20029;-63
2023/04/06 01:40:55;;;;;;;22.52;14.60;;;;;;;3.44;66.57;101597.53;5044257;28;20034;-62
2023/04/06 01:43:20;;;;;;;24.27;15.00;;;;;;;3.47;66.63;101589.50;5045223;28;20025;-62
2023/04/06 01:45:45;;;;;;;25.43;15.33;;;;;;;3.49;64.86;101592.84;5044536;28;20052;-62
2023/04/06 01:48:12;;;;;;;26.23;16.30;;;;;;;3.52;66.63;101578.72;5044496;28;20044;-63
2023/04/06 01:50:37;;;;;;;24.57;15.37;;;;;;;3.50;64.79;101584.91;5046516;28;20045;-62
2023/04/06 01:53:02;;;;;;;25.77;15.98;;;;;;;3.53;66.09;101583.88;5046643;28;20029;-62
2023/04/06 01:55:27;;;;;;;25.23;15.68;;;;;;;3.55;66.11;101579.34;5045344;28;20033;-63
2023/04/06 01:57:53;;;;;;;26.38;15.88;;;;;;;3.53;65.68;101568.13;5042169;28;20028;-63
2023/04/06 02:00:19;;;;;;;24.47;15.87;;;;;;;3.60;65.16;101569.41;5044586;28;20041;-63
2023/04/06 02:02:44;;;;;;;26.85;15.48;;;;;;;3.64;65.59;101564.81;5044359;28;20468;-62
2023/04/06 02:05:10;;;;;;;27.02;16.33;;;;;;;3.66;65.33;101565.56;5044631;28;20041;-63
2023/04/06 02:07:35;;;;;;;26.25;16.23;;;;;;;3.66;66.50;101562.94;5041649;28;20790;-63
2023/04/06 02:10:00;;;;;;;24.73;16.30;;;;;;;3.65;66.13;101560.41;5042041;28;20037;-63
2023/04/06 02:12:26;;;;;;;26.00;16.63;;;;;;;3.61;66.02;101554.53;5035640;28;20052;-62
2023/04/06 02:14:51;;;;;;;25.80;15.90;;;;;;;3.70;65.01;101553.09;5044309;28;20037;-63
2023/04/06 02:17:17;;;;;;;26.13;16.08;;;;;;;3.70;65.75;101550.47;5043842;28;20155;-62
2023/04/06 02:19:42;;;;;;;25.45;16.15;;;;;;;3.70;65.17;101555.72;5044968;28;20154;-63
2023/04/06 02:22:09;;;;;;;24.30;16.17;;;;;;;3.70;65.29;101558.34;5035440;28;20071;-63
2023/04/06 02:24:35;;;;;;;27.05;16.02;;;;;;;3.73;66.05;101550.25;5038670;28;20044;-62
2023/04/06 02:27:01;;;;;;;25.27;16.33;;;;;;;3.74;65.79;101549.31;5042418;28;20030;-63
2023/04/06 02:29:26;;;;;;;29.80;17.48;;;;;;;3.76;65.61;101550.09;5037707;28;20048;-62
2023/04/06 02:31:51;;;;;;;25.55;16.30;;;;;;;3.77;65.43;101543.88;5041246;28;20090;-62
2023/04/06 02:34:18;;;;;;;25.80;16.85;;;;;;;3.78;65.11;101540.31;5040535;28;20036;-62
2023/04/06 02:36:45;;;;;;;24.90;16.83;;;;;;;3.80;65.01;101542.84;5042237;28;20480;-62
2023/04/06 02:39:10;;;;;;;25.53;17.07;;;;;;;3.81;64.83;101540.13;5040552;28;20033;-63
2023/04/06 02:41:36;;;;;;;27.20;17.38;;;;;;;3.83;65.00;101532.13;5039015;28;20067;-61
2023/04/06 02:44:01;;;;;;;27.77;18.02;;;;;;;3.84;64.46;101536.47;5041408;28;20039;-62
2023/04/06 02:46:26;;;;;;;28.23;18.50;;;;;;;3.85;65.04;101528.47;5042294;28;20052;-63
2023/04/06 02:48:52;;;;;;;29.05;18.73;;;;;;;3.86;64.30;101527.53;5039278;28;20420;-62
2023/04/06 02:51:17;;;;;;;28.65;18.08;;;;;;;3.87;65.13;101526.63;5040066;28;20120;-62
2023/04/06 02:53:42;;;;;;;30.65;18.10;;;;;;;3.87;64.44;101513.50;5040782;28;20029;-62
2023/04/06 02:56:09;;;;;;;29.23;18.17;;;;;;;3.89;65.19;101521.25;5042199;28;20061;-63
2023/04/06 02:58:34;;;;;;;28.88;18.10;;;;;;;3.91;64.36;101522.00;5041469;28;20396;-62
2023/04/06 03:01:00;;;;;;;31.08;18.17;;;;;;;3.93;64.92;101516.63;5037100;28;20044;-61
2023/04/06 03:03:26;;;;;;;30.30;18.48;;;;;;;3.94;65.21;101508.66;5036240;28;20044;-63
2023/04/06 03:05:51;;;;;;;28.77;18.95;;;;;;;3.96;64.24;101511.19;5036730;28;20049;-62
2023/04/06 03:08:16;;;;;;;32.40;19.30;;;;;;;3.96;64.32;101511.19;5035721;28;20033;-62
2023/04/06 03:10:41;;;;;;;30.92;18.92;;;;;;;3.96;64.55;101505.94;5035895;28;21805;-62
2023/04/06 03:13:07;;;;;;;31.80;19.57;;;;;;;3.96;64.12;101503.31;5036205;28;20048;-62
2023/04/06 03:15:32;;;;;;;29.90;18.70;;;;;;;3.96;64.19;101503.31;5035300;28;20572;-62
2023/04/06 03:17:57;;;;;;;31.23;19.25;;;;;;;3.95;64.38;101506.91;5037785;28;20025;-62
2023/04/06 03:20:23;;;;;;;33.85;19.77;;;;;;;3.92;64.75;101499.22;5036549;28;20029;-63
2023/04/06 03:22:48;;;;;;;30.70;19.02;;;;;;;3.94;64.30;101507.84;5036009;28;20041;-62
2023/04/06 03:25:13;;;;;;;30.98;18.90;;;;;;;3.94;64.20;101498.16;5037708;28;20036;-62
2023/04/06 03:27:39;;;;;;;29.03;19.27;;;;;;;3.93;64.38;101493.88;5038370;28;20547;-62
2023/04/06 03:30:05;;;;;;;31.73;19.10;;;;;;;3.95;64.52;101493.78;5041651;28;20050;-63
2023/04/06 03:32:30;;;;;;;29.25;19.63;;;;;;;3.97;64.07;101491.88;5041801;28;20511;-62
2023/04/06 03:34:55;;;;;;;29.25;19.10;;;;;;;3.98;64.01;101490.94;5041567;28;20148;-62
2023/04/06 03:37:21;;;;;;;29.02;19.58;;;;;;;4.00;64.27;101483.81;5039364;28;20024;-63
2023/04/06 03:39:46;;;;;;;30.20;19.47;;;;;;;3.97;63.96;101486.63;5039016;28;20059;-62
2023/04/06 03:42:12;;;;;;;30.17;19.52;;;;;;;3.97;64.14;101484.84;5041165;28;20424;-62
2023/04/06 03:44:37;;;;;;;31.93;19.70;;;;;;;3.97;63.34;101491.88;5037653;28;20052;-62
2023/04/06 03:47:02;;;;;;;28.58;18.77;;;;;;;3.99;64.58;101490.00;5042120;28;20041;-62
2023/04/06 03:49:27;;;;;;;29.88;19.50;;;;;;;3.99;64.50;101484.75;5039878;28;20033;-62
2023/04/06 03:51:53;;;;;;;30.65;20.65;;;;;;;3.99;65.01;101485.59;5041789;28;20136;-62
2023/04/06 03:54:18;;;;;;;31.58;20.98;;;;;;;4.00;64.16;101487.25;5043168;28;20036;-62
2023/04/06 03:56:43;;;;;;;32.45;20.60;;;;;;;4.00;64.28;101483.81;5039241;28;20044;-62
2023/04/06 03:59:10;;;;;;;30.35;19.73;;;;;;;4.00;63.77;101481.19;5039778;28;20041;-61
2023/04/06 04:01:35;;;;;;;33.38;20.35;;;;;;;4.00;64.10;101489.06;5038223;28;21723;-62
2023/04/06 04:04:01;;;;;;;32.55;20.35;;;;;;;3.99;64.20;101488.22;5040336;28;20043;-62
2023/04/06 04:06:26;;;;;;;31.27;19.95;;;;;;;3.98;63.98;101483.06;5038226;28;20033;-62
2023/04/06 04:08:51;;;;;;;28.40;19.13;;;;;;;3.99;64.68;101479.50;5037781;28;20032;-62
2023/04/06 04:11:17;;;;;;;29.52;19.38;;;;;;;3.98;64.37;101485.69;5038968;28;20041;-62
2023/04/06 04:13:42;;;;;;;30.58;19.92;;;;;;;3.97;63.59;101477.00;5044297;28;20139;-62
2023/04/06 04:16:07;;;;;;;30.45;19.33;;;;;;;3.96;64.15;101475.31;5038941;28;20059;-62
2023/04/06 04:18:33;;;;;;;30.70;19.83;;;;;;;3.99;64.83;101484.75;5039550;28;20036;-62
2023/04/06 04:20:58;;;;;;;30.35;19.90;;;;;;;3.97;64.49;101482.22;5038979;28;20029;-62
2023/04/06 04:23:23;;;;;;;30.08;19.58;;;;;;;3.98;63.75;101483.06;5039490;28;20803;-62
2023/04/06 04:25:48;;;;;;;31.88;20.30;;;;;;;3.97;64.36;101481.38;5038902;28;20064;-62
2023/04/06 04:28:14;;;;;;;30.92;19.58;;;;;;;3.97;64.76;101478.75;5038734;28;20094;-63
2023/04/06 04:30:39;;;;;;;32.85;19.58;;;;;;;3.97;65.07;101477.00;5043594;28;20052;-62
2023/04/06 04:33:04;;;;;;;30.77;19.63;;;;;;;3.95;65.17;101478.84;5040465;28;20155;-62
2023/04/06 04:35:29;;;;;;;30.45;19.67;;;;;;;3.97;65.17;101481.38;5043322;28;20040;-62
2023/04/06 04:37:56;;;;;;;33.70;19.47;;;;;;;3.95;64.94;101472.78;5044945;28;20036;-62
2023/04/06 04:40:21;;;;;;;28.60;19.30;;;;;;;3.94;64.67;101471.94;5042601;28;20112;-62
2023/04/06 04:42:46;;;;;;;32.95;19.58;;;;;;;3.94;65.36;101477.19;5041728;28;20115;-61
2023/04/06 04:45:12;;;;;;;31.60;19.77;;;;;;;3.95;64.95;101478.03;5039595;28;20061;-62
2023/04/06 04:47:37;;;;;;;33.78;20.17;;;;;;;3.95;65.15;101475.41;5042410;28;20888;-62
2023/04/06 04:50:02;;;;;;;30.90;19.05;;;;;;;3.95;64.71;101472.78;5041920;28;20498;-62
2023/04/06 04:52:28;;;;;;;33.65;19.52;;;;;;;3.94;64.31;101465.84;5038297;28;20032;-62
2023/04/06 04:54:53;;;;;;;32.17;19.90;;;;;;;3.95;64.80;101468.34;5037474;28;20033;-62
2023/04/06 04:57:18;;;;;;;31.20;19.27;;;;;;;3.95;65.09;101467.53;5036737;28;20424;-62
2023/04/06 04:59:44;;;;;;;30.73;19.20;;;;;;;3.96;64.36;101458.72;5035528;28;20032;-62
2023/04/06 05:02:09;;;;;;;34.25;19.70;;;;;;;3.97;64.57;101460.38;5035895;28;20056;-62
2023/04/06 05:04:35;;;;;;;33.87;19.37;;;;;;;3.98;64.21;101459.44;5037002;28;20037;-62
2023/04/06 05:07:04;;;;;;;29.90;18.27;;;;;;;4.01;64.90;101461.88;5040163;28;20037;-62
2023/04/06 05:09:31;;;;;;;31.73;19.30;;;;;;;4.00;64.20;101461.03;5036368;28;20039;-62
2023/04/06 05:11:57;;;;;;;29.95;18.13;;;;;;;4.01;64.79;101462.69;5034431;28;20033;-62
2023/04/06 05:14:23;;;;;;;29.73;18.02;;;;;;;4.00;65.16;101461.03;5034334;28;20040;-62
2023/04/06 05:16:48;;;;;;;30.90;18.48;;;;;;;4.03;65.43;101470.47;5038304;28;20044;-62
2023/04/06 05:19:13;;;;;;;31.15;18.73;;;;;;;4.04;65.27;101459.88;5037708;28;20117;-62
2023/04/06 05:21:39;;;;;;;31.58;19.02;;;;;;;4.06;65.51;101464.19;5038808;28;20042;-62
2023/04/06 05:24:04;;;;;;;30.13;19.25;;;;;;;4.08;65.06;101459.66;5034743;28;20025;-62
2023/04/06 05:26:30;;;;;;;29.83;19.00;;;;;;;4.07;65.09;101461.47;5038828;28;20040;-61
2023/04/06 05:28:55;;;;;;;35.92;20.75;;;;;;;4.07;65.43;101456.22;5038290;28;20025;-62
2023/04/06 05:31:20;;;;;;;33.15;19.27;;;;;;;4.11;64.62;101462.09;5037610;28;20527;-62
2023/04/06 05:33:46;;;;;;;33.95;19.20;;;;;;;4.10;64.94;101461.22;5040003;28;20036;-63
2023/04/06 05:36:11;;;;;;;31.20;19.05;;;;;;;4.12;64.86;101469.88;5037575;28;20374;-62
2023/04/06 05:38:37;;;;;;;31.02;19.15;;;;;;;4.13;64.25;101471.53;5039300;28;20350;-62
2023/04/06 05:41:02;;;;;;;31.60;18.50;;;;;;;4.14;63.97;101462.72;5035006;28;20104;-62
2023/04/06 05:43:27;;;;;;;31.38;18.83;;;;;;;4.17;64.50;101469.53;5035567;28;20033;-62
2023/04/06 05:45:52;;;;;;;33.28;19.35;;;;;;;4.19;65.02;101453.69;5037021;28;20134;-62
2023/04/06 05:48:18;;;;;;;32.63;19.75;;;;;;;4.19;63.89;101457.16;5035497;28;20492;-61
2023/04/06 05:50:49;;;;;;;31.13;18.40;;;;;;;4.19;63.80;101453.69;5033388;28;20073;-62
2023/04/06 05:53:14;;;;;;;31.30;18.88;;;;;;;4.22;63.25;101450.84;5033590;28;20021;-62
2023/04/06 05:55:39;;;;;;;34.30;19.58;;;;;;;4.27;63.06;101460.09;5035629;28;20487;-62
2023/04/06 05:58:05;;;;;;;30.55;19.13;;;;;;;4.30;63.73;101456.44;5036217;28;20033;-62
2023/04/06 06:00:30;;;;;;;31.15;18.80;;;;;;;4.33;62.74;101458.84;5033081;28;20033;-62
2023/04/06 06:02:55;;;;;;;31.50;19.08;;;;;;;4.38;62.96;101454.13;5033620;28;20480;-62
2023/04/06 06:05:21;;;;;;;31.13;18.02;;;;;;;4.41;62.42;101458.31;5036364;28;20117;-63
2023/04/06 06:07:47;;;;;;;30.20;18.50;;;;;;;4.43;62.27;101461.66;5037861;28;20420;-62
2023/04/06 06:10:13;;;;;;;30.92;18.45;;;;;;;4.44;62.62;101466.81;5041501;28;20025;-62
2023/04/06 06:12:38;;;;;;;29.50;18.90;;;;;;;4.49;61.93;101470.94;5039043;28;20507;-62
2023/04/06 06:15:04;;;;;;;32.30;17.88;;;;;;;4.52;61.93;101470.69;5040000;28;20021;-61
2023/04/06 06:17:29;;;;;;;30.58;18.20;;;;;;;4.57;62.82;101468.59;5045920;28;20674;-62
2023/04/06 06:19:55;;;;;;;30.67;17.95;;;;;;;4.59;62.33;101466.69;5042324;28;20044;-63
2023/04/06 06:22:20;;;;;;;30.65;18.02;;;;;;;4.57;61.73;101463.34;5041482;28;20827;-62
2023/04/06 06:24:45;;;;;;;26.73;17.30;;;;;;;4.60;61.91;101462.28;5045974;28;20507;-62
2023/04/06 06:27:11;;;;;;;27.90;17.73;;;;;;;4.63;62.21;101468.16;5049462;28;20487;-62
2023/04/06 06:29:36;;;;;;;31.58;18.75;;;;;;;4.64;62.22;101464.59;5043986;28;20033;-63
2023/04/06 06:32:01;;;;;;;31.33;18.50;;;;;;;4.67;62.47;101464.38;5044122;28;20094;-62
2023/04/06 06:34:26;;;;;;;30.08;19.15;;;;;;;4.66;62.15;101467.13;5045919;28;20095;-62
2023/04/06 06:36:54;;;;;;;32.45;19.30;;;;;;;4.68;62.11;101460.81;5045452;28;20457;-62
2023/04/06 06:39:19;;;;;;;30.58;18.80;;;;;;;4.68;62.47;101466.06;5044743;28;20512;-63
2023/04/06 06:41:45;;;;;;;27.95;17.63;;;;;;;4.71;63.21;101468.50;5044414;28;20061;-62
2023/04/06 06:44:10;;;;;;;28.85;18.38;;;;;;;4.73;62.54;101467.53;5045979;28;20111;-63
2023/04/06 06:46:36;;;;;;;29.13;18.45;;;;;;;4.71;62.68;101460.59;5044519;28;20064;-63
2023/04/06 06:49:01;;;;;;;30.92;18.35;;;;;;;4.74;63.03;101458.72;5044989;28;20045;-63
2023/04/06 06:51:26;;;;;;;30.85;18.33;;;;;;;4.75;62.55;101457.75;5038630;28;20214;-62
2023/04/06 06:53:51;;;;;;;33.80;18.55;;;;;;;4.78;63.12;101463.63;5040977;28;20029;-63
2023/04/06 06:56:17;;;;;;;27.38;17.75;;;;;;;4.80;62.84;101463.53;5040362;28;20116;-63
2023/04/06 06:58:42;;;;;;;30.48;18.65;;;;;;;4.82;63.06;101461.63;5045547;28;20123;-63
2023/04/06 07:01:07;;;;;;;29.23;18.20;;;;;;;4.84;62.33;101459.75;5046733;28;20037;-62
2023/04/06 07:03:33;;;;;;;30.45;18.65;;;;;;;4.87;62.83;101463.94;5046808;28;20036;-63
2023/04/06 07:05:59;;;;;;;31.50;18.33;;;;;;;4.88;62.45;101463.00;5041280;28;20476;-62
2023/04/06 07:08:25;;;;;;;29.10;18.70;;;;;;;4.92;62.49;101462.66;5043839;28;20036;-62
2023/04/06 07:10:52;;;;;;;28.80;18.17;;;;;;;4.98;62.81;101461.38;5038313;28;20033;-63
2023/04/06 07:13:21;;;;;;;29.95;18.48;;;;;;;5.01;62.55;101460.31;5038553;28;20048;-63
2023/04/06 07:15:47;;;;;;;28.23;18.20;;;;;;;5.04;62.60;101460.09;5043258;28;20466;-62
2023/04/06 07:18:12;;;;;;;29.10;18.35;;;;;;;5.07;62.10;101462.50;5041972;28;20074;-63
2023/04/06 07:20:38;;;;;;;30.58;18.00;;;;;;;5.09;61.90;101458.81;5044716;28;20039;-63
2023/04/06 07:23:03;;;;;;;31.60;18.65;;;;;;;5.11;62.40;101458.72;5044180;28;20024;-62
2023/04/06 07:25:29;;;;;;;29.38;18.67;;;;;;;5.13;62.49;101456.81;5042782;28;20033;-62
2023/04/06 07:27:55;;;;;;;28.85;18.52;;;;;;;5.13;62.89;101454.19;5038024;28;20155;-62
2023/04/06 07:30:21;;;;;;;29.17;17.83;;;;;;;5.18;63.50;101454.69;5040439;28;20491;-61
2023/04/06 07:32:47;;;;;;;30.65;18.05;;;;;;;5.20;63.24;101454.59;5044181;28;20036;-63
2023/04/06 07:35:13;;;;;;;29.75;18.35;;;;;;;5.25;63.77;101457.72;5040187;28;20080;-63
2023/04/06 07:37:38;;;;;;;30.63;18.08;;;;;;;5.29;63.41;101450.44;5041142;28;20511;-63
2023/04/06 07:40:04;;;;;;;29.02;18.50;;;;;;;5.35;63.84;101457.88;5044664;28;20025;-63
2023/04/06 07:42:29;;;;;;;28.02;18.48;;;;;;;5.38;62.00;101453.25;5040972;28;20071;-62
2023/04/06 07:44:54;;;;;;;28.92;17.92;;;;;;;5.43;63.40;101455.53;5043643;28;20048;-64
2023/04/06 07:47:20;;;;;;;29.73;18.08;;;;;;;5.45;62.89;101447.53;5036331;28;20504;-63
2023/04/06 07:49:46;;;;;;;29.23;18.40;;;;;;;5.45;62.52;101448.38;5036775;28;20032;-62
2023/04/06 07:52:11;;;;;;;27.35;17.73;;;;;;;5.47;62.78;101457.00;5038286;28;20079;-63
2023/04/06 07:54:36;;;;;;;28.60;18.42;;;;;;;5.50;63.20;101456.78;5039726;28;20041;-63
2023/04/06 07:57:02;;;;;;;27.85;17.63;;;;;;;5.55;63.26;101452.94;5039635;28;20095;-63
2023/04/06 07:59:27;;;;;;;27.42;17.80;;;;;;;5.57;62.83;101451.06;5039779;28;20377;-63
2023/04/06 08:01:52;;;;;;;31.55;18.38;;;;;;;5.58;62.74;101458.81;5039779;28;20452;-62
2023/04/06 08:04:17;;;;;;;28.75;17.80;;;;;;;5.63;63.81;101455.88;5038265;28;20037;-63
2023/04/06 08:06:43;;;;;;;27.10;17.17;;;;;;;5.66;63.91;101453.00;5037977;28;20060;-62
2023/04/06 08:09:08;;;;;;;32.78;17.45;;;;;;;5.71;63.53;101458.75;5037045;28;20112;-63
2023/04/06 08:11:33;;;;;;;30.60;17.65;;;;;;;5.76;62.90;101459.25;5037797;28;20489;-62
2023/04/06 08:13:58;;;;;;;31.65;17.92;;;;;;;5.82;63.75;101459.75;5037981;28;20029;-62
2023/04/06 08:16:24;;;;;;;31.48;18.00;;;;;;;5.87;63.15;101447.91;5039862;28;20037;-63
2023/04/06 08:18:49;;;;;;;27.98;17.67;;;;;;;5.94;63.05;101458.84;5038460;28;20111;-63
2023/04/06 08:21:15;;;;;;;31.00;17.95;;;;;;;6.02;62.28;101453.84;5042820;28;20052;-63
2023/04/06 08:23:41;;;;;;;33.05;18.70;;;;;;;6.02;63.67;101453.84;5043297;28;20048;-63
2023/04/06 08:26:06;;;;;;;26.70;17.00;;;;;;;6.08;62.44;101459.63;5042309;28;20066;-63
2023/04/06 08:28:32;;;;;;;29.77;17.52;;;;;;;6.10;63.67;101452.44;5044922;28;20040;-63
2023/04/06 08:30:57;;;;;;;28.20;17.70;;;;;;;6.13;64.29;101460.09;5042129;28;20032;-62
2023/04/06 08:33:22;;;;;;;29.02;17.70;;;;;;;6.20;63.77;101463.94;5045096;28;20457;-63
2023/04/06 08:35:48;;;;;;;29.35;17.75;;;;;;;6.23;63.51;101461.09;5038652;28;20033;-63
2023/04/06 08:38:13;;;;;;;26.90;17.35;;;;;;;6.27;64.70;101465.16;5040859;28;20037;-63
2023/04/06 08:40:39;;;;;;;29.85;17.60;;;;;;;6.30;63.77;101457.03;5041772;28;20515;-64
2023/04/06 08:43:11;;;;;;;27.70;17.90;;;;;;;6.30;64.13;101457.03;5034323;28;20104;-61
2023/04/06 08:45:38;;;;;;;36.10;17.50;;;;;;;6.36;64.10;101457.50;5041641;28;20392;-60
2023/04/06 08:48:06;;;;;;;29.35;17.73;;;;;;;6.40;64.77;101461.56;5041088;28;20056;-65
2023/04/06 08:50:32;;;;;;;26.98;17.70;;;;;;;6.45;64.27;101462.06;5043601;28;20029;-64
2023/04/06 08:52:59;;;;;;;27.92;16.95;;;;;;;6.51;64.47;101458.94;5039291;28;20045;-65
2023/04/06 08:55:24;;;;;;;27.75;17.23;;;;;;;6.60;64.28;101470.56;5036312;28;20063;-62
2023/04/06 08:57:53;;;;;;;27.63;17.85;;;;;;;6.63;64.00;101459.78;5036579;28;20064;-63
2023/04/06 09:00:19;;;;;;;30.40;18.75;;;;;;;6.66;64.46;101462.19;5041578;28;20056;-64
2023/04/06 09:02:45;;;;;;;29.67;17.20;;;;;;;6.71;64.51;101461.84;5044046;28;20591;-64
2023/04/06 09:05:11;;;;;;;30.17;18.15;;;;;;;6.78;64.63;101457.75;5038279;28;20029;-64
2023/04/06 09:07:37;;;;;;;31.67;18.52;;;;;;;6.86;66.00;101457.16;5042651;28;20914;-64
2023/04/06 09:10:04;;;;;;;30.73;18.33;;;;;;;6.94;65.62;101467.91;5034813;28;20033;-64
2023/04/06 09:12:31;;;;;;;29.70;17.60;;;;;;;7.00;65.45;101467.44;5032473;28;20033;-64
2023/04/06 09:14:58;;;;;;;31.63;18.27;;;;;;;7.06;65.96;101466.09;5035668;28;20550;-64
2023/04/06 09:17:25;;;;;;;29.65;18.30;;;;;;;7.09;67.65;101468.50;5037435;28;20090;-60
2023/04/06 09:19:51;;;;;;;28.77;18.73;;;;;;;7.13;68.18;101467.28;5037344;28;20419;-66
2023/04/06 09:22:18;;;;;;;30.83;17.95;;;;;;;7.20;68.16;101474.72;5038201;28;20033;-66
2023/04/06 09:24:47;;;;;;;30.15;19.30;;;;;;;7.23;70.22;101469.16;5054100;28;20405;-64
2023/04/06 09:27:14;;;;;;;30.35;18.27;;;;;;;7.26;70.54;101472.41;5034907;28;20033;-66
2023/04/06 09:29:40;;;;;;;27.88;18.83;;;;;;;7.29;72.12;101471.31;5036353;28;20037;-64
2023/04/06 09:32:07;;;;;;;27.63;17.80;;;;;;;7.31;72.29;101464.13;5037462;28;20052;-65
2023/04/06 09:34:33;;;;;;;27.23;17.58;;;;;;;7.31;73.03;101464.13;5040019;28;20151;-65
2023/04/06 09:36:58;;;;;;;27.70;18.38;;;;;;;7.34;71.81;101466.50;5042271;28;20060;-65
2023/04/06 09:39:24;;;;;;;29.35;17.98;;;;;;;7.34;72.70;101457.75;5041285;28;20949;-65
2023/04/06 09:41:54;;;;;;;27.80;16.77;;;;;;;7.34;72.60;101465.66;5038832;28;20032;-62
2023/04/06 09:44:20;;;;;;;28.55;17.50;;;;;;;7.34;72.21;101463.88;5040863;28;20803;-63
2023/04/06 09:46:47;;;;;;;28.55;15.95;;;;;;;7.36;72.06;101461.94;5036547;28;20084;-63
2023/04/06 09:49:13;;;;;;;29.27;16.50;;;;;;;7.35;72.75;101460.25;5042950;28;20585;-63
2023/04/06 09:51:43;;;;;;;23.88;15.10;;;;;;;7.37;72.82;101468.91;5044906;28;20029;-63
2023/04/06 09:54:09;;;;;;;24.13;15.45;;;;;;;7.39;73.79;101464.34;5047655;28;20820;-63
2023/04/06 09:56:47;;;;;;;25.45;15.20;;;;;;;7.39;74.49;101456.41;5042627;28;20469;-63
2023/04/06 09:59:32;;;;;;;22.55;14.27;;;;;;;7.40;74.83;101463.38;5046543;28;20469;-63
2023/04/06 10:01:59;;;;;;;21.77;13.80;;;;;;;7.41;75.91;101458.94;5039289;28;20032;-63
2023/04/06 10:04:38;;;;;;;24.17;14.25;;;;;;;7.38;77.34;101460.03;5039322;28;20029;-63
2023/04/06 10:07:06;;;;;;;21.30;13.73;;;;;;;7.35;78.36;101457.63;5046822;28;20069;-63
2023/04/06 10:09:35;;;;;;;21.02;13.30;;;;;;;7.35;78.56;101470.81;5045540;28;20099;-63
2023/04/06 10:12:05;;;;;;;21.13;13.45;;;;;;;7.32;78.80;101465.81;5036059;28;20036;-62
2023/04/06 10:14:36;;;;;;;22.77;13.80;;;;;;;7.30;79.60;101462.44;5046726;28;20132;-63
2023/04/06 10:17:03;;;;;;;22.95;13.98;;;;;;;7.34;81.29;101458.59;5045948;28;20032;-63
2023/04/06 10:19:38;;;;;;;24.63;13.60;;;;;;;7.36;82.18;101464.56;5036795;28;20477;-63
2023/04/06 10:22:06;;;;;;;22.08;13.73;;;;;;;7.36;82.52;101466.38;5044353;28;20060;-63
2023/04/06 10:24:31;;;;;;;21.67;13.57;;;;;;;7.43;84.42;101472.00;5046925;28;20885;-63
2023/04/06 10:26:58;;;;;;;23.02;14.00;;;;;;;7.40;83.16;101468.66;5042850;28;20094;-62
2023/04/06 10:29:24;;;;;;;22.02;13.32;;;;;;;7.40;84.09;101468.66;5044595;28;20029;-64
2023/04/06 10:31:49;;;;;;;23.23;12.45;;;;;;;7.37;83.96;101468.06;5040733;28;20045;-63
2023/04/06 10:34:15;;;;;;;19.13;12.60;;;;;;;7.35;84.71;101465.53;5046896;28;20404;-61
2023/04/06 10:36:40;;;;;;;19.38;12.35;;;;;;;7.33;84.48;101471.91;5045612;28;20604;-64
2023/04/06 10:39:06;;;;;;;21.38;12.07;;;;;;;7.28;84.74;101467.00;5044263;28;20182;-63
2023/04/06 10:41:43;;;;;;;18.55;12.27;;;;;;;7.26;86.90;101474.22;5044816;28;20036;-64
2023/04/06 10:44:17;;;;;;;20.58;12.55;;;;;;;7.25;87.82;101467.25;5044529;28;20583;-62
2023/04/06 10:46:52;;;;;;;20.73;11.85;;;;;;;7.17;88.23;101461.75;5038614;28;20052;-63
2023/04/06 10:49:18;;;;;;;19.42;12.10;;;;;;;7.20;89.61;101459.72;5044689;28;20041;-62
2023/04/06 10:51:43;;;;;;;19.98;12.07;;;;;;;7.22;89.14;101456.94;5044413;28;20093;-63
2023/04/06 10:54:10;;;;;;;20.13;12.30;;;;;;;7.22;90.34;101459.59;5039009;28;20447;-60
2023/04/06 10:56:37;;;;;;;19.85;11.90;;;;;;;7.22;91.07;101449.88;5040934;28;20392;-61
2023/04/06 10:59:02;;;;;;;18.90;11.20;;;;;;;7.26;91.85;101450.47;5043240;28;20105;-61
2023/04/06 11:01:28;;;;;;;18.63;11.32;;;;;;;7.28;91.93;101443.25;5045041;28;20041;-62
2023/04/06 11:03:55;;;;;;;17.70;10.60;;;;;;;7.27;91.23;101446.88;5046791;28;20044;-61
2023/04/06 11:06:26;;;;;;;17.23;10.43;;;;;;;7.24;91.91;101447.09;5046784;28;20032;-61
2023/04/06 11:08:53;;;;;;;17.35;10.18;;;;;;;7.27;91.31;101441.59;5041182;28;20025;-63
2023/04/06 11:11:20;;;;;;;17.08;10.77;;;;;;;7.29;92.75;101444.94;5041209;28;20084;-63